createdAt,value
2022-10-05T00:02:19.688Z,83.68
2022-10-05T00:04:48.358Z,83.66
2022-10-05T00:07:20.916Z,83.67
2022-10-05T00:09:57.444Z,83.74
2022-10-05T00:12:25.956Z,83.79
2022-10-05T00:14:56.771Z,83.82
2022-10-05T00:17:29.721Z,83.83
2022-10-05T00:19:57.131Z,83.91
2022-10-05T00:22:31.756Z,84.09
2022-10-05T00:25:00.978Z,84.18
2022-10-05T00:27:39.274Z,84.23
2022-10-05T00:30:18.239Z,84.35
2022-10-05T00:32:45.767Z,84.46
2022-10-05T00:35:14.201Z,84.48
2022-10-05T00:37:42.040Z,84.52
2022-10-05T00:40:18.956Z,84.59
2022-10-05T00:43:25.862Z,84.65
2022-10-05T00:46:08.839Z,84.72
2022-10-05T00:48:53.646Z,84.68
2022-10-05T00:51:35.984Z,84.67
2022-10-05T00:54:02.793Z,84.69
2022-10-05T00:56:32.399Z,84.67
2022-10-05T00:59:13.968Z,84.69
2022-10-05T01:02:03.009Z,84.84
2022-10-05T01:04:40.335Z,84.78
2022-10-05T01:07:37.864Z,84.71
2022-10-05T01:10:29.166Z,84.77
2022-10-05T01:13:01.904Z,84.77
2022-10-05T01:15:41.373Z,84.76
2022-10-05T01:18:17.235Z,84.81
2022-10-05T01:20:59.780Z,84.82
2022-10-05T01:23:58.649Z,84.71
2022-10-05T01:26:37.548Z,84.73
2022-10-05T01:29:12.916Z,84.77
2022-10-05T01:31:58.170Z,84.84
2022-10-05T01:34:35.611Z,85.01
2022-10-05T01:37:15.112Z,85.16
2022-10-05T01:39:50.908Z,85.20
2022-10-05T01:42:23.887Z,85.21
2022-10-05T01:44:59.261Z,85.19
2022-10-05T01:47:43.436Z,85.23
2022-10-05T01:50:31.452Z,85.31
2022-10-05T01:53:13.352Z,85.51
2022-10-05T01:55:40.278Z,85.54
2022-10-05T01:58:11.564Z,85.67
2022-10-05T02:01:06.635Z,85.72
2022-10-05T02:03:45.065Z,85.67
2022-10-05T02:06:18.755Z,85.71
2022-10-05T02:08:58.685Z,85.86
2022-10-05T02:11:25.992Z,86.06
2022-10-05T02:13:55.321Z,86.16
2022-10-05T02:16:31.342Z,86.29
2022-10-05T02:19:00.794Z,86.38
2022-10-05T02:21:28.122Z,86.35
2022-10-05T02:24:00.091Z,86.47
2022-10-05T02:26:28.679Z,86.76
2022-10-05T02:29:00.034Z,86.68
2022-10-05T02:31:45.774Z,86.55
2022-10-05T02:34:31.498Z,86.65
2022-10-05T02:37:16.902Z,86.86
2022-10-05T02:39:55.277Z,86.87
2022-10-05T02:42:32.711Z,86.88
2022-10-05T02:45:26.324Z,86.82
2022-10-05T02:48:18.037Z,86.86
2022-10-05T02:51:04.778Z,86.70
2022-10-05T02:53:55.363Z,86.58
2022-10-05T02:56:30.195Z,86.51
2022-10-05T02:59:22.096Z,86.38
2022-10-05T03:02:20.921Z,86.38
2022-10-05T03:05:17.197Z,86.41
2022-10-05T03:08:03.827Z,86.79
2022-10-05T03:10:50.681Z,86.56
2022-10-05T03:13:25.016Z,86.59
2022-10-05T03:16:14.096Z,86.63
2022-10-05T03:18:59.634Z,86.96
2022-10-05T03:21:45.467Z,86.98
2022-10-05T03:24:31.213Z,87.17
2022-10-05T03:27:08.643Z,87.45
2022-10-05T03:30:05.411Z,87.48
2022-10-05T03:33:03.109Z,87.51
2022-10-05T03:35:43.140Z,87.57
2022-10-05T03:38:13.005Z,87.67
2022-10-05T03:41:10.922Z,87.76
2022-10-05T03:44:17.682Z,87.76
2022-10-05T03:47:11.089Z,88.20
2022-10-05T03:49:56.724Z,88.06
2022-10-05T03:52:30.586Z,88.10
2022-10-05T03:55:03.336Z,87.91
2022-10-05T03:57:36.340Z,87.95
2022-10-05T04:00:06.715Z,87.85
2022-10-05T04:03:00.299Z,87.94
2022-10-05T04:05:32.370Z,87.71
2022-10-05T04:08:11.854Z,87.74
2022-10-05T04:10:44.008Z,87.70
2022-10-05T04:13:15.528Z,87.67
2022-10-05T04:15:50.734Z,87.81
2022-10-05T04:18:26.192Z,87.61
2022-10-05T04:20:59.516Z,87.61
2022-10-05T04:23:41.917Z,87.57
2022-10-05T04:26:16.691Z,87.57
2022-10-05T04:29:01.145Z,87.71
2022-10-05T04:31:53.095Z,87.77
2022-10-05T04:34:47.882Z,87.71
2022-10-05T04:37:25.388Z,87.67
2022-10-05T04:40:14.753Z,87.49
2022-10-05T04:43:14.074Z,87.41
2022-10-05T04:46:04.908Z,87.43
2022-10-05T04:48:46.000Z,87.51
2022-10-05T04:51:40.415Z,87.48
2022-10-05T04:54:34.758Z,87.56
2022-10-05T04:57:12.744Z,87.41
2022-10-05T05:00:05.598Z,87.18
2022-10-05T05:03:10.289Z,87.16
2022-10-05T05:06:15.406Z,87.09
2022-10-05T05:08:58.068Z,87.08
2022-10-05T05:11:54.854Z,86.83
2022-10-05T05:14:46.878Z,86.96
2022-10-05T05:17:40.717Z,86.95
2022-10-05T05:20:10.462Z,86.80
2022-10-05T05:23:03.313Z,86.83
2022-10-05T05:25:53.688Z,86.77
2022-10-05T05:28:35.975Z,86.80
2022-10-05T05:31:15.445Z,86.80
2022-10-05T05:33:55.330Z,86.47
2022-10-05T05:36:39.307Z,86.09
2022-10-05T05:39:21.827Z,86.45
2022-10-05T05:42:02.048Z,86.23
2022-10-05T05:44:40.936Z,85.95
2022-10-05T05:47:24.073Z,86.34
2022-10-05T05:50:07.273Z,85.79
2022-10-05T05:52:52.721Z,85.82
2022-10-05T05:55:29.734Z,85.29
2022-10-05T05:58:04.250Z,85.44
2022-10-05T06:00:56.125Z,84.61
2022-10-05T06:03:26.321Z,85.38
2022-10-05T06:06:04.306Z,85.07
2022-10-05T06:08:41.936Z,85.00
2022-10-05T06:11:51.122Z,84.74
2022-10-05T06:14:28.715Z,84.47
2022-10-05T06:17:15.165Z,84.75
2022-10-05T06:19:44.106Z,84.55
2022-10-05T06:22:17.273Z,84.54
2022-10-05T06:24:59.904Z,84.31
2022-10-05T06:27:38.312Z,84.10
2022-10-05T06:30:15.297Z,84.15
2022-10-05T06:33:15.297Z,83.81
2022-10-05T06:36:13.900Z,83.62
2022-10-05T06:38:47.973Z,83.76
2022-10-05T06:41:41.340Z,83.49
2022-10-05T06:44:28.202Z,83.58
2022-10-05T06:47:35.849Z,83.43
2022-10-05T06:50:45.942Z,83.22
2022-10-05T06:53:40.809Z,83.02
2022-10-05T06:56:15.809Z,83.12
2022-10-05T06:58:45.391Z,83.25
2022-10-05T07:01:44.770Z,83.12
2022-10-05T07:04:35.976Z,83.15
2022-10-05T07:07:36.610Z,83.29
2022-10-05T07:10:40.413Z,83.16
2022-10-05T07:13:13.971Z,83.35
2022-10-05T07:15:49.873Z,83.45
2022-10-05T07:19:03.811Z,83.27
2022-10-05T07:21:59.239Z,83.26
2022-10-05T07:24:32.009Z,83.31
2022-10-05T07:27:12.763Z,83.00
2022-10-05T07:29:42.974Z,83.20
2022-10-05T07:32:40.707Z,82.75
2022-10-05T07:36:00.495Z,83.12
2022-10-05T07:38:36.146Z,83.00
2022-10-05T07:41:32.380Z,83.00
2022-10-05T07:44:13.198Z,83.13
2022-10-05T07:46:54.286Z,83.06
2022-10-05T07:49:38.834Z,83.06
2022-10-05T07:52:13.367Z,83.32
2022-10-05T07:54:47.643Z,83.18
2022-10-05T07:57:20.374Z,83.03
2022-10-05T08:00:00.422Z,83.14
2022-10-05T08:02:34.097Z,83.05
2022-10-05T08:05:15.819Z,82.93
2022-10-05T08:07:43.304Z,82.97
2022-10-05T08:10:28.076Z,83.07
2022-10-05T08:13:20.321Z,82.93
2022-10-05T08:15:53.872Z,83.05
2022-10-05T08:18:35.977Z,83.10
2022-10-05T08:21:06.198Z,82.91
2022-10-05T08:23:50.963Z,83.05
2022-10-05T08:26:45.864Z,82.89
2022-10-05T08:29:31.443Z,82.97
2022-10-05T08:32:02.633Z,83.08
2022-10-05T08:34:51.300Z,83.04
2022-10-05T08:37:23.164Z,83.23
2022-10-05T08:40:24.557Z,83.16
2022-10-05T08:43:13.269Z,83.08
2022-10-05T08:46:30.022Z,83.18
2022-10-05T08:49:15.709Z,83.18
2022-10-05T08:52:31.553Z,83.11
2022-10-05T08:55:10.159Z,83.07
2022-10-05T08:58:03.343Z,83.20
2022-10-05T09:00:56.211Z,83.07
2022-10-05T09:03:50.926Z,83.10
2022-10-05T09:06:23.520Z,83.00
2022-10-05T09:09:14.562Z,83.00
2022-10-05T09:11:53.395Z,83.07
2022-10-05T09:14:39.065Z,82.93
2022-10-05T09:17:21.161Z,83.09
2022-10-05T09:20:15.146Z,83.01
2022-10-05T09:23:43.450Z,83.07
2022-10-05T09:26:28.641Z,83.02
2022-10-05T09:29:07.311Z,82.99
2022-10-05T09:32:06.710Z,83.05
2022-10-05T09:34:55.694Z,82.97
2022-10-05T09:37:38.523Z,82.95
2022-10-05T09:40:33.320Z,82.95
2022-10-05T09:43:16.024Z,82.90
2022-10-05T09:46:00.330Z,83.07
2022-10-05T09:48:42.046Z,83.04
2022-10-05T09:51:30.877Z,83.00
2022-10-05T09:54:22.197Z,83.10
2022-10-05T09:57:06.931Z,83.13
2022-10-05T10:00:11.024Z,83.13
2022-10-05T10:03:18.567Z,82.97
2022-10-05T10:06:05.419Z,83.04
2022-10-05T10:08:35.148Z,82.91
2022-10-05T10:11:19.143Z,82.94
2022-10-05T10:13:53.710Z,82.96
2022-10-05T10:16:53.689Z,83.10
2022-10-05T10:19:56.301Z,83.04
2022-10-05T10:22:58.222Z,83.08
2022-10-05T10:25:34.805Z,83.00
2022-10-05T10:28:14.055Z,82.90
2022-10-05T10:30:51.933Z,83.12
2022-10-05T10:33:37.723Z,83.15
2022-10-05T10:36:16.285Z,82.86
2022-10-05T10:39:10.220Z,83.06
2022-10-05T10:42:02.172Z,83.07
2022-10-05T10:44:34.903Z,82.96
2022-10-05T10:47:07.818Z,82.92
2022-10-05T10:50:05.646Z,82.93
2022-10-05T10:52:56.935Z,82.86
2022-10-05T10:55:32.520Z,82.90
2022-10-05T10:58:40.256Z,83.12
2022-10-05T11:01:22.136Z,82.99
2022-10-05T11:04:17.056Z,83.07
2022-10-05T11:07:04.483Z,82.97
2022-10-05T11:09:51.497Z,82.91
2022-10-05T11:12:40.242Z,83.00
2022-10-05T11:15:23.987Z,82.71
2022-10-05T11:18:01.915Z,82.90
2022-10-05T11:20:47.163Z,82.74
2022-10-05T11:23:37.962Z,82.84
2022-10-05T11:26:38.161Z,82.71
2022-10-05T11:29:23.709Z,82.69
2022-10-05T11:32:40.897Z,82.67
2022-10-05T11:35:20.560Z,82.65
2022-10-05T11:37:59.361Z,82.78
2022-10-05T11:40:47.774Z,82.70
2022-10-05T11:43:48.916Z,82.73
2022-10-05T11:47:12.673Z,82.72
2022-10-05T11:49:42.141Z,82.66
2022-10-05T11:52:08.896Z,82.70
2022-10-05T11:55:12.077Z,82.87
2022-10-05T11:57:59.003Z,82.81
2022-10-05T12:00:40.630Z,82.95
2022-10-05T12:03:27.860Z,82.86
2022-10-05T12:06:00.552Z,82.95
2022-10-05T12:08:27.423Z,83.04
2022-10-05T12:11:27.420Z,82.95
2022-10-05T12:14:04.772Z,83.07
2022-10-05T12:17:01.922Z,83.10
2022-10-05T12:19:36.634Z,83.11
2022-10-05T12:22:29.963Z,82.82
2022-10-05T12:25:04.641Z,83.00
2022-10-05T12:27:36.268Z,82.96
2022-10-05T12:30:18.603Z,82.97
2022-10-05T12:33:23.990Z,82.91
2022-10-05T12:36:06.424Z,82.86
2022-10-05T12:38:41.255Z,83.00
2022-10-05T12:41:21.390Z,83.04
2022-10-05T12:44:22.267Z,83.04
2022-10-05T12:47:00.947Z,83.20
2022-10-05T12:49:30.342Z,83.07
2022-10-05T12:52:06.675Z,82.99
2022-10-05T12:54:42.142Z,83.13
2022-10-05T12:57:34.309Z,82.97
2022-10-05T13:00:23.128Z,82.96
2022-10-05T13:02:58.104Z,83.08
2022-10-05T13:05:33.606Z,83.19
2022-10-05T13:08:28.260Z,83.28
2022-10-05T13:11:23.901Z,83.36
2022-10-05T13:14:16.504Z,83.55
2022-10-05T13:17:23.548Z,83.41
2022-10-05T13:19:58.326Z,83.28
2022-10-05T13:22:36.546Z,83.26
2022-10-05T13:25:17.483Z,82.94
2022-10-05T13:27:52.165Z,83.08
2022-10-05T13:30:22.514Z,83.21
2022-10-05T13:33:51.632Z,83.36
2022-10-05T13:36:57.872Z,83.10
2022-10-05T13:39:38.191Z,83.22
2022-10-05T13:42:12.349Z,83.35
2022-10-05T13:45:01.138Z,83.28
2022-10-05T13:47:38.910Z,83.32
2022-10-05T13:50:21.119Z,83.36
2022-10-05T13:53:01.698Z,83.32
2022-10-05T13:55:49.719Z,83.33
2022-10-05T13:58:28.489Z,83.36
2022-10-05T14:01:00.168Z,83.58
2022-10-05T14:03:31.349Z,83.61
2022-10-05T14:06:01.546Z,83.66
2022-10-05T14:08:33.613Z,83.68
2022-10-05T14:11:19.605Z,83.61
2022-10-05T14:13:47.998Z,83.64
2022-10-05T14:16:21.726Z,83.75
2022-10-05T14:19:03.796Z,83.78
2022-10-05T14:21:32.800Z,83.84
2022-10-05T14:24:39.450Z,83.59
2022-10-05T14:27:21.446Z,83.70
2022-10-05T14:30:09.464Z,83.62
2022-10-05T14:33:06.496Z,83.66
2022-10-05T14:35:49.663Z,83.61
2022-10-05T14:38:29.845Z,83.62
2022-10-05T14:41:25.424Z,83.61
2022-10-05T14:44:03.756Z,83.54
2022-10-05T14:46:33.011Z,83.65
2022-10-05T14:49:21.679Z,83.82
2022-10-05T14:51:51.579Z,83.88
2022-10-05T14:54:44.346Z,83.68
2022-10-05T14:57:39.457Z,83.75
2022-10-05T15:00:18.964Z,84.00
2022-10-05T15:03:07.584Z,83.93
2022-10-05T15:05:42.452Z,84.00
2022-10-05T15:08:12.040Z,83.96
2022-10-05T15:10:41.472Z,83.88
2022-10-05T15:13:19.283Z,84.06
2022-10-05T15:15:56.605Z,84.01
2022-10-05T15:18:50.914Z,83.44
2022-10-05T15:21:42.359Z,83.94
2022-10-05T15:24:17.392Z,83.97
2022-10-05T15:27:00.800Z,83.13
2022-10-05T15:29:42.881Z,82.50
2022-10-05T15:32:21.616Z,82.27
2022-10-05T15:35:25.786Z,82.43
2022-10-05T15:38:18.776Z,81.67
2022-10-05T15:40:54.857Z,81.91
2022-10-05T15:43:23.312Z,81.89
2022-10-05T15:46:07.014Z,81.39
2022-10-05T15:48:48.440Z,82.02
2022-10-05T15:51:35.604Z,82.07
2022-10-05T15:54:43.957Z,81.47
2022-10-05T15:57:29.418Z,81.91
2022-10-05T16:00:23.061Z,81.87
2022-10-05T16:03:13.075Z,80.88
2022-10-05T16:06:18.547Z,81.05
2022-10-05T16:09:24.581Z,80.40
2022-10-05T16:11:59.762Z,80.88
2022-10-05T16:14:38.681Z,80.24
2022-10-05T16:17:26.977Z,81.04
2022-10-05T16:20:30.977Z,81.13
2022-10-05T16:23:06.968Z,81.19
2022-10-05T16:25:40.125Z,81.35
2022-10-05T16:28:12.992Z,81.37
2022-10-05T16:30:42.930Z,81.10
2022-10-05T16:33:29.272Z,81.30
2022-10-05T16:35:58.897Z,81.88
2022-10-05T16:39:00.158Z,81.65
2022-10-05T16:41:49.444Z,81.79
2022-10-05T16:44:42.744Z,81.32
2022-10-05T16:47:28.264Z,81.49
2022-10-05T16:50:13.603Z,81.59
2022-10-05T16:52:44.779Z,81.55
2022-10-05T16:55:21.101Z,81.27
2022-10-05T16:57:56.797Z,81.57
2022-10-05T17:00:45.208Z,81.48
2022-10-05T17:03:34.587Z,81.45
2022-10-05T17:06:39.015Z,81.49
2022-10-05T17:09:30.669Z,81.47
2022-10-05T17:12:03.574Z,81.49
2022-10-05T17:15:06.661Z,81.12
2022-10-05T17:18:01.858Z,81.17
2022-10-05T17:20:42.880Z,81.35
2022-10-05T17:23:51.372Z,81.44
2022-10-05T17:26:36.797Z,81.17
2022-10-05T17:29:14.489Z,81.45
2022-10-05T17:32:33.501Z,81.46
2022-10-05T17:35:03.072Z,81.59
2022-10-05T17:37:36.187Z,81.59
2022-10-05T17:40:30.991Z,81.40
2022-10-05T17:43:01.331Z,81.55
2022-10-05T17:45:34.172Z,81.50
2022-10-05T17:48:06.262Z,81.64
2022-10-05T17:50:59.224Z,81.58
2022-10-05T17:54:02.456Z,81.37
2022-10-05T17:56:47.989Z,81.55
2022-10-05T17:59:46.635Z,81.33
2022-10-05T18:02:19.517Z,81.49
2022-10-05T18:05:00.117Z,81.46
2022-10-05T18:07:27.907Z,81.49
2022-10-05T18:10:09.909Z,81.58
2022-10-05T18:12:36.858Z,81.39
2022-10-05T18:15:06.440Z,81.57
2022-10-05T18:17:46.711Z,81.30
2022-10-05T18:20:31.617Z,81.33
2022-10-05T18:23:07.173Z,81.24
2022-10-05T18:25:40.384Z,81.36
2022-10-05T18:28:31.763Z,81.21
2022-10-05T18:31:04.376Z,81.20
2022-10-05T18:33:40.570Z,81.27
2022-10-05T18:36:22.682Z,81.10
2022-10-05T18:38:53.115Z,81.16
2022-10-05T18:41:20.099Z,80.65
2022-10-05T18:44:02.301Z,80.81
2022-10-05T18:46:38.065Z,80.98
2022-10-05T18:49:36.247Z,81.03
2022-10-05T18:52:03.368Z,80.89
2022-10-05T18:54:54.981Z,80.90
2022-10-05T18:57:42.811Z,81.03
2022-10-05T19:00:19.726Z,80.73
2022-10-05T19:02:57.154Z,80.78
2022-10-05T19:05:48.809Z,80.92
2022-10-05T19:08:37.876Z,80.97
2022-10-05T19:11:18.200Z,81.07
2022-10-05T19:14:14.200Z,80.85
2022-10-05T19:16:43.685Z,80.75
2022-10-05T19:19:44.003Z,80.52
2022-10-05T19:22:42.223Z,80.65
2022-10-05T19:25:25.723Z,80.62
2022-10-05T19:28:18.537Z,80.43
2022-10-05T19:31:13.150Z,80.69
2022-10-05T19:33:55.399Z,80.65
2022-10-05T19:36:32.890Z,80.72
2022-10-05T19:39:37.236Z,80.50
2022-10-05T19:42:17.157Z,80.13
2022-10-05T19:45:21.528Z,80.24
2022-10-05T19:48:08.541Z,80.07
2022-10-05T19:50:38.503Z,80.46
2022-10-05T19:53:22.758Z,80.13
2022-10-05T19:55:49.722Z,79.75
2022-10-05T19:58:24.149Z,79.96
2022-10-05T20:00:58.444Z,80.13
2022-10-05T20:03:30.582Z,79.86
2022-10-05T20:06:00.114Z,79.75
2022-10-05T20:08:36.396Z,79.78
2022-10-05T20:11:10.644Z,79.66
2022-10-05T20:13:40.031Z,79.40
2022-10-05T20:16:49.841Z,79.52
2022-10-05T20:19:50.434Z,79.39
2022-10-05T20:22:25.189Z,79.39
2022-10-05T20:24:54.776Z,79.14
2022-10-05T20:27:39.764Z,79.36
2022-10-05T20:30:08.873Z,79.27
2022-10-05T20:32:35.711Z,79.32
2022-10-05T20:35:03.033Z,78.86
2022-10-05T20:37:30.178Z,79.00
2022-10-05T20:39:57.032Z,78.82
2022-10-05T20:42:24.117Z,78.53
2022-10-05T20:44:56.539Z,78.94
2022-10-05T20:47:24.445Z,78.79
2022-10-05T20:49:53.465Z,78.87
2022-10-05T20:52:23.182Z,78.75
2022-10-05T20:54:54.014Z,78.72
2022-10-05T20:57:21.375Z,78.56
2022-10-05T20:59:48.249Z,78.40
2022-10-05T21:02:15.106Z,78.30
2022-10-05T21:04:46.804Z,78.23
2022-10-05T21:07:16.008Z,78.14
2022-10-05T21:09:44.701Z,78.34
2022-10-05T21:12:11.612Z,78.33
2022-10-05T21:14:38.900Z,78.59
2022-10-05T21:17:06.795Z,78.48
2022-10-05T21:19:38.432Z,78.52
2022-10-05T21:22:07.579Z,78.55
2022-10-05T21:24:39.105Z,78.45
2022-10-05T21:27:06.720Z,78.47
2022-10-05T21:29:35.311Z,78.53
2022-10-05T21:32:02.513Z,78.45
2022-10-05T21:34:29.616Z,78.63
2022-10-05T21:36:56.505Z,78.27
2022-10-05T21:39:24.780Z,78.35
2022-10-05T21:41:51.751Z,78.53
2022-10-05T21:44:18.981Z,78.50
2022-10-05T21:46:46.955Z,78.23
2022-10-05T21:49:17.597Z,78.20
2022-10-05T21:51:47.303Z,78.44
2022-10-05T21:54:17.230Z,78.09
2022-10-05T21:56:48.367Z,78.18
2022-10-05T21:59:18.860Z,78.40
2022-10-05T22:01:46.018Z,78.37
2022-10-05T22:04:12.961Z,78.22
2022-10-05T22:06:40.389Z,78.38
2022-10-05T22:09:07.201Z,78.32
2022-10-05T22:11:34.020Z,77.94
2022-10-05T22:14:03.572Z,77.94
2022-10-05T22:16:33.966Z,78.03
2022-10-05T22:19:13.880Z,77.95
2022-10-05T22:21:41.955Z,77.77
2022-10-05T22:24:11.533Z,77.85
2022-10-05T22:26:40.139Z,77.99
2022-10-05T22:29:07.135Z,77.79
2022-10-05T22:31:34.165Z,77.95
2022-10-05T22:34:01.065Z,77.89
2022-10-05T22:36:28.059Z,77.72
2022-10-05T22:38:54.965Z,77.63
2022-10-05T22:41:21.841Z,77.92
2022-10-05T22:43:50.226Z,77.92
2022-10-05T22:46:17.772Z,78.13
2022-10-05T22:48:44.671Z,77.77
2022-10-05T22:51:11.656Z,77.78
2022-10-05T22:53:38.634Z,77.70
2022-10-05T22:56:08.101Z,77.56
2022-10-05T22:58:35.814Z,77.74
2022-10-05T23:01:08.492Z,77.99
2022-10-05T23:03:35.633Z,78.09
2022-10-05T23:06:05.238Z,78.24
2022-10-05T23:08:33.300Z,77.76
2022-10-05T23:11:04.161Z,78.06
2022-10-05T23:13:31.650Z,78.14
2022-10-05T23:15:59.006Z,78.25
2022-10-05T23:18:26.437Z,78.35
2022-10-05T23:20:55.293Z,78.30
2022-10-05T23:23:23.376Z,78.18
2022-10-05T23:25:50.574Z,78.47
2022-10-05T23:28:17.670Z,78.50
2022-10-05T23:30:44.827Z,78.65
2022-10-05T23:33:11.642Z,78.66
2022-10-05T23:35:38.515Z,78.56
2022-10-05T23:38:05.375Z,78.64
2022-10-05T23:40:32.145Z,78.50
2022-10-05T23:42:58.985Z,78.60
2022-10-05T23:45:25.776Z,78.74
2022-10-05T23:47:52.794Z,78.42
2022-10-05T23:50:21.161Z,78.54
